Time;durP1;ratioP1;P1;durP2;ratioP2;P2;SDS_P1;SDS_P2;PMS_P1;PMS_P2;Temp;Humidity;BMP_temperature;BMP_pressure;BME280_temperature;BME280_humidity;BME280_pressure;Samples;Min_cycle;Max_cycle;Signal;HPM_P1;HPM_P2
2023/10/07 00:01:24;;;;;;;12.25;5.00;;;13.20;99.90;;;;;;4964888;28;86884;-71
2023/10/07 00:03:54;;;;;;;12.80;4.75;;;13.20;99.90;;;;;;4961705;28;90794;-71
2023/10/07 00:06:27;;;;;;;11.93;5.18;;;13.10;99.90;;;;;;4960078;28;88358;-70
2023/10/07 00:08:52;;;;;;;13.38;4.78;;;13.10;99.90;;;;;;4964404;28;86194;-70
2023/10/07 00:11:19;;;;;;;16.48;5.65;;;13.10;99.90;;;;;;4959775;28;86350;-71
2023/10/07 00:13:46;;;;;;;14.02;5.38;;;13.10;99.90;;;;;;4958452;28;88164;-71
2023/10/07 00:16:14;;;;;;;17.35;6.00;;;13.10;99.90;;;;;;4953504;28;89804;-72
2023/10/07 00:18:40;;;;;;;14.45;5.10;;;13.10;99.90;;;;;;4953204;28;90331;-71
2023/10/07 00:21:15;;;;;;;12.35;5.30;;;13.10;99.90;;;;;;4959536;28;86838;-70
2023/10/07 00:23:42;;;;;;;18.83;6.15;;;13.10;99.90;;;;;;4958535;28;86687;-71
2023/10/07 00:26:13;;;;;;;9.65;5.35;;;13.10;99.90;;;;;;4968553;28;89413;-71
2023/10/07 00:28:39;;;;;;;11.27;5.47;;;13.10;99.90;;;;;;4965089;28;86286;-71
2023/10/07 00:31:22;;;;;;;13.75;5.45;;;13.10;99.90;;;;;;4957845;28;86768;-72
2023/10/07 00:34:02;;;;;;;14.65;5.00;;;13.10;99.90;;;;;;4958462;28;94749;-71
2023/10/07 00:39:08;;;;;;;14.50;5.28;;;13.00;99.90;;;;;;4957366;28;86225;-71
2023/10/07 00:41:40;;;;;;;15.63;5.40;;;13.00;99.90;;;;;;4951307;28;86453;-71
2023/10/07 00:46:51;;;;;;;18.55;5.72;;;13.00;99.90;;;;;;4962008;28;86539;-71
2023/10/07 00:49:27;;;;;;;15.35;5.65;;;13.00;99.90;;;;;;4955052;28;86148;-71
2023/10/07 00:51:54;;;;;;;16.30;6.13;;;13.10;99.90;;;;;;4960106;28;85865;-71
2023/10/07 00:59:40;;;;;;;11.68;5.88;;;13.20;99.90;;;;;;4955486;28;86159;-71
2023/10/07 01:02:17;;;;;;;15.88;5.70;;;13.20;99.90;;;;;;4958054;28;86585;-71
2023/10/07 01:04:43;;;;;;;16.63;5.93;;;13.30;99.90;;;;;;4951660;28;90845;-71
2023/10/07 01:07:19;;;;;;;14.07;5.57;;;13.30;99.90;;;;;;4952566;28;89753;-71
2023/10/07 01:09:59;;;;;;;13.68;5.35;;;13.40;99.90;;;;;;4960518;28;90686;-70
2023/10/07 01:12:35;;;;;;;13.43;5.90;;;13.50;99.90;;;;;;4954463;28;86303;-71
2023/10/07 01:15:04;;;;;;;17.30;5.70;;;13.50;99.90;;;;;;4954247;28;86617;-71
2023/10/07 01:17:31;;;;;;;11.85;4.90;;;13.50;99.90;;;;;;4953710;28;86914;-71
2023/10/07 01:19:57;;;;;;;19.15;5.75;;;13.50;99.90;;;;;;4952050;28;86288;-71
2023/10/07 01:22:35;;;;;;;14.55;5.18;;;13.60;99.90;;;;;;4951204;28;86514;-71
2023/10/07 01:25:06;;;;;;;11.75;5.53;;;13.60;99.90;;;;;;4951560;28;91194;-70
2023/10/07 01:27:35;;;;;;;10.82;5.20;;;13.60;99.90;;;;;;4970027;28;89572;-71
2023/10/07 01:30:13;;;;;;;15.65;5.68;;;13.60;99.90;;;;;;4956522;28;86195;-71
2023/10/07 01:32:49;;;;;;;18.23;5.75;;;13.60;99.90;;;;;;4953965;28;85734;-71
2023/10/07 01:35:25;;;;;;;13.15;5.85;;;13.60;99.90;;;;;;4954021;28;87901;-70
2023/10/07 01:38:18;;;;;;;11.57;5.47;;;13.70;99.90;;;;;;4952110;28;89922;-72
2023/10/07 01:43:19;;;;;;;12.60;5.30;;;13.70;99.90;;;;;;4953468;28;86705;-72
2023/10/07 01:45:47;;;;;;;15.30;6.55;;;13.60;99.90;;;;;;4955279;28;87712;-72
2023/10/07 01:48:13;;;;;;;14.68;5.68;;;13.60;99.90;;;;;;4951862;28;88604;-72
2023/10/07 01:50:40;;;;;;;13.02;5.50;;;13.70;99.90;;;;;;4952240;28;87439;-72
2023/10/07 01:53:07;;;;;;;17.13;5.47;;;13.70;99.90;;;;;;4951029;28;86505;-71
2023/10/07 01:55:42;;;;;;;10.57;4.90;;;13.70;99.90;;;;;;4950612;28;89852;-71
2023/10/07 01:58:13;;;;;;;17.33;5.55;;;13.60;99.90;;;;;;4960436;28;90186;-71
2023/10/07 02:00:44;;;;;;;15.98;6.45;;;13.70;99.90;;;;;;4970116;28;90333;-71
2023/10/07 02:03:15;;;;;;;16.90;5.93;;;13.60;99.90;;;;;;4955127;28;86419;-72
2023/10/07 02:05:41;;;;;;;14.57;5.75;;;13.60;99.90;;;;;;4957112;28;87396;-71
2023/10/07 02:08:14;;;;;;;14.77;5.90;;;13.60;99.90;;;;;;4963943;28;89160;-71
2023/10/07 02:10:45;;;;;;;16.38;5.57;;;13.60;99.90;;;;;;4953417;28;85872;-71
2023/10/07 02:13:16;;;;;;;11.13;5.95;;;13.60;99.90;;;;;;4964163;28;86237;-71
2023/10/07 02:15:42;;;;;;;16.85;5.65;;;13.60;99.90;;;;;;4963264;28;95083;-72
2023/10/07 02:18:18;;;;;;;13.05;5.63;;;13.60;99.90;;;;;;4956192;28;86416;-71
2023/10/07 02:21:07;;;;;;;14.00;6.38;;;13.60;99.90;;;;;;4955134;28;86162;-72
2023/10/07 02:23:37;;;;;;;15.43;6.20;;;13.60;99.90;;;;;;4972588;28;86644;-71
2023/10/07 02:26:06;;;;;;;13.38;5.88;;;13.60;99.90;;;;;;4962667;28;87498;-72
2023/10/07 02:28:35;;;;;;;13.50;5.82;;;13.60;99.90;;;;;;4964181;28;90063;-71
2023/10/07 02:31:15;;;;;;;14.05;5.85;;;13.60;99.90;;;;;;4955339;28;86428;-71
2023/10/07 02:33:46;;;;;;;13.80;6.15;;;13.60;99.90;;;;;;4962706;28;88448;-72
2023/10/07 02:36:31;;;;;;;12.55;5.72;;;13.60;99.90;;;;;;4946146;28;90043;-73
2023/10/07 02:39:04;;;;;;;12.88;5.75;;;13.60;99.90;;;;;;4954284;28;90452;-71
2023/10/07 02:41:31;;;;;;;14.57;5.93;;;13.60;99.90;;;;;;4955507;28;86105;-72
2023/10/07 02:44:05;;;;;;;14.38;6.13;;;13.60;99.90;;;;;;4956633;28;86643;-71
2023/10/07 02:49:03;;;;;;;18.42;6.45;;;13.60;99.90;;;;;;4956903;28;86287;-70
2023/10/07 02:51:29;;;;;;;14.20;6.20;;;13.60;99.90;;;;;;4977410;28;86518;-71
2023/10/07 02:54:01;;;;;;;15.77;6.45;;;13.70;99.90;;;;;;4967420;28;86429;-71
2023/10/07 02:56:35;;;;;;;16.08;6.40;;;13.70;99.90;;;;;;4959408;28;87384;-72
2023/10/07 02:59:01;;;;;;;;;;;13.70;99.90;;;;;;4953209;28;90143;-72
2023/10/07 03:01:28;;;;;;;16.55;5.85;;;13.70;99.90;;;;;;4957530;28;86574;-71
2023/10/07 03:03:55;;;;;;;12.48;6.00;;;13.80;99.90;;;;;;4958125;28;85797;-71
2023/10/07 03:06:28;;;;;;;13.73;5.85;;;13.70;99.90;;;;;;4955098;28;90872;-71
2023/10/07 03:09:00;;;;;;;13.60;5.93;;;13.80;99.90;;;;;;4952900;28;90220;-71
2023/10/07 03:11:48;;;;;;;12.38;5.88;;;13.80;99.90;;;;;;4968753;28;86498;-71
2023/10/07 03:14:23;;;;;;;17.23;6.32;;;13.80;99.90;;;;;;4952750;28;86537;-72
2023/10/07 03:16:59;;;;;;;16.15;6.20;;;13.90;99.90;;;;;;4953812;28;89539;-71
2023/10/07 03:19:33;;;;;;;14.57;6.28;;;13.90;99.90;;;;;;4954249;28;90144;-71
2023/10/07 03:22:09;;;;;;;14.13;6.20;;;13.90;99.90;;;;;;4955114;28;86516;-72
2023/10/07 03:24:41;;;;;;;17.35;6.10;;;13.90;99.90;;;;;;4980254;28;86410;-72
2023/10/07 03:27:11;;;;;;;16.33;5.95;;;14.00;99.90;;;;;;4956749;28;90919;-71
2023/10/07 03:29:57;;;;;;;12.60;5.65;;;14.00;99.90;;;;;;4953108;28;90008;-70
2023/10/07 03:32:23;;;;;;;11.82;5.32;;;14.00;99.90;;;;;;4955002;28;86199;-71
2023/10/07 03:34:49;;;;;;;14.15;5.80;;;14.00;99.90;;;;;;4967916;28;86672;-71
2023/10/07 03:37:14;;;;;;;14.85;5.85;;;14.00;99.90;;;;;;4943110;28;90720;-72
2023/10/07 03:42:24;;;;;;;14.30;5.53;;;14.00;99.90;;;;;;4945500;28;86188;-72
2023/10/07 03:44:50;;;;;;;10.82;4.88;;;14.10;99.90;;;;;;4952516;28;86341;-71
2023/10/07 03:47:16;;;;;;;14.80;5.88;;;14.00;99.90;;;;;;4947575;28;90475;-70
2023/10/07 03:49:52;;;;;;;12.73;5.95;;;14.10;99.90;;;;;;4940435;28;89077;-71
2023/10/07 03:52:20;;;;;;;17.63;6.43;;;14.10;99.90;;;;;;4940008;28;86268;-71
2023/10/07 03:54:47;;;;;;;11.85;5.28;;;14.10;99.90;;;;;;4953545;28;86007;-71
2023/10/07 03:57:15;;;;;;;13.13;6.15;;;14.10;99.90;;;;;;4952767;28;89625;-72
2023/10/07 03:59:41;;;;;;;22.13;6.22;;;14.10;99.90;;;;;;4953344;28;86766;-71
2023/10/07 04:04:59;;;;;;;10.90;5.32;;;14.10;99.90;;;;;;4943942;28;86130;-72
2023/10/07 04:07:45;;;;;;;14.07;6.43;;;14.10;99.90;;;;;;4948430;28;89404;-72
2023/10/07 04:12:47;;;;;;;16.30;6.43;;;14.20;99.90;;;;;;4961647;28;88392;-71
2023/10/07 04:15:17;;;;;;;13.98;5.63;;;14.20;99.90;;;;;;4970405;28;86048;-72
2023/10/07 04:17:44;;;;;;;19.70;6.07;;;14.20;99.90;;;;;;4958966;28;86867;-71
2023/10/07 04:20:58;;;;;;;14.82;5.70;;;14.30;99.90;;;;;;4950648;28;90143;-72
2023/10/07 04:23:02;;;;;;;18.30;5.65;;;14.30;99.90;;;;;;4941577;28;85975;-72
2023/10/07 04:25:29;;;;;;;17.48;5.82;;;14.30;99.90;;;;;;4955217;28;86206;-72
2023/10/07 04:27:55;;;;;;;14.07;5.55;;;14.30;99.90;;;;;;4956435;28;86965;-72
2023/10/07 04:30:39;;;;;;;11.27;4.93;;;14.30;99.90;;;;;;4955313;28;86416;-71
2023/10/07 04:33:10;;;;;;;12.38;5.18;;;14.30;99.90;;;;;;4952733;28;86385;-71
2023/10/07 04:35:37;;;;;;;16.10;5.32;;;14.40;99.90;;;;;;4952877;28;86431;-71
2023/10/07 04:38:18;;;;;;;14.38;5.70;;;14.40;99.90;;;;;;4953035;28;90382;-72
2023/10/07 04:43:37;;;;;;;12.82;5.10;;;14.40;99.90;;;;;;4961481;28;86264;-71
2023/10/07 04:46:21;;;;;;;13.50;5.40;;;14.40;99.90;;;;;;4954871;28;86417;-71
2023/10/07 04:48:56;;;;;;;16.23;5.57;;;14.40;99.90;;;;;;4953582;28;95319;-71
2023/10/07 04:53:59;;;;;;;13.13;5.15;;;14.40;99.90;;;;;;4951973;28;86572;-71
2023/10/07 04:56:26;;;;;;;12.95;6.18;;;14.40;99.90;;;;;;4952492;28;87681;-72
2023/10/07 04:58:53;;;;;;;14.02;5.00;;;14.40;99.90;;;;;;4952464;28;90307;-71
2023/10/07 05:01:30;;;;;;;17.05;5.80;;;14.50;99.90;;;;;;4951074;28;88507;-73
2023/10/07 05:04:04;;;;;;;10.48;5.80;;;14.50;99.90;;;;;;4942585;28;86493;-72
2023/10/07 05:06:34;;;;;;;16.70;6.50;;;14.50;99.90;;;;;;4946368;28;85989;-71
2023/10/07 05:09:10;;;;;;;12.40;5.25;;;14.50;99.90;;;;;;4940398;28;86870;-71
2023/10/07 05:11:40;;;;;;;15.77;6.00;;;14.50;99.90;;;;;;4938022;28;88105;-71
2023/10/07 05:14:07;;;;;;;10.45;5.07;;;14.60;99.90;;;;;;4943328;28;87196;-71
2023/10/07 05:16:34;;;;;;;8.77;4.82;;;14.50;99.90;;;;;;4951912;28;86798;-71
2023/10/07 05:19:00;;;;;;;11.63;5.80;;;14.50;99.90;;;;;;4954672;28;86242;-72
2023/10/07 05:21:27;;;;;;;15.93;5.28;;;14.60;99.90;;;;;;4968352;28;89815;-71
2023/10/07 05:23:53;;;;;;;13.70;5.43;;;14.60;99.90;;;;;;4968824;28;86337;-71
2023/10/07 05:26:18;;;;;;;15.18;5.70;;;14.60;99.90;;;;;;4968452;28;86454;-71
2023/10/07 05:28:47;;;;;;;10.70;5.82;;;14.60;99.90;;;;;;4961808;28;87465;-71
2023/10/07 05:31:17;;;;;;;10.18;5.15;;;14.60;99.90;;;;;;4956890;28;88901;-71
2023/10/07 05:33:43;;;;;;;13.55;4.75;;;14.60;99.90;;;;;;4958721;28;89286;-70
2023/10/07 05:36:14;;;;;;;14.85;5.47;;;14.60;99.90;;;;;;4953682;28;86246;-71
2023/10/07 05:38:47;;;;;;;11.65;4.75;;;14.70;99.90;;;;;;4953637;28;86717;-71
2023/10/07 05:41:15;;;;;;;16.13;5.35;;;14.70;99.90;;;;;;4953786;28;86376;-72
2023/10/07 05:43:48;;;;;;;12.70;5.18;;;14.70;99.90;;;;;;4953599;28;86059;-71
2023/10/07 05:46:20;;;;;;;9.98;4.45;;;14.70;99.90;;;;;;4952204;28;86435;-72
2023/10/07 05:48:51;;;;;;;14.63;5.18;;;14.70;99.90;;;;;;4950896;28;90356;-71
2023/10/07 05:51:17;;;;;;;10.35;4.53;;;14.70;99.90;;;;;;4952913;28;86551;-70
2023/10/07 05:53:49;;;;;;;13.15;5.63;;;14.70;99.90;;;;;;4953937;28;85801;-73
2023/10/07 05:56:15;;;;;;;11.38;4.70;;;14.80;99.90;;;;;;4954016;28;86535;-71
2023/10/07 05:58:43;;;;;;;10.60;4.68;;;14.80;99.90;;;;;;4954081;28;89715;-71
2023/10/07 06:01:11;;;;;;;16.17;4.68;;;14.70;99.90;;;;;;4949253;28;89578;-71
2023/10/07 06:03:38;;;;;;;12.88;5.30;;;14.70;99.90;;;;;;4946712;28;87542;-71
2023/10/07 06:06:04;;;;;;;12.55;5.03;;;14.70;99.90;;;;;;4951847;28;86212;-72
2023/10/07 06:08:32;;;;;;;10.85;4.82;;;14.70;99.90;;;;;;4953295;28;86808;-72
2023/10/07 06:10:59;;;;;;;13.23;5.70;;;14.80;99.90;;;;;;4949772;28;89340;-73
2023/10/07 06:13:27;;;;;;;13.13;5.38;;;14.80;99.90;;;;;;4950576;28;86096;-71
2023/10/07 06:16:04;;;;;;;11.52;5.05;;;14.80;99.90;;;;;;4952337;28;86422;-71
2023/10/07 06:18:33;;;;;;;12.88;4.78;;;14.80;99.90;;;;;;4952029;28;86419;-71
2023/10/07 06:21:17;;;;;;;12.35;5.25;;;14.80;99.90;;;;;;4952715;28;85891;-73
2023/10/07 06:23:43;;;;;;;11.10;4.85;;;14.80;99.90;;;;;;4953036;28;86143;-72
2023/10/07 06:26:09;;;;;;;13.82;5.28;;;14.80;99.90;;;;;;4950946;28;86709;-72
2023/10/07 06:28:35;;;;;;;13.57;4.82;;;14.80;99.90;;;;;;4951172;28;90695;-71
2023/10/07 06:31:13;;;;;;;15.75;4.90;;;14.80;99.90;;;;;;4952982;28;86239;-71
2023/10/07 06:34:12;;;;;;;11.90;5.13;;;14.80;99.90;;;;;;4954234;28;86014;-71
2023/10/07 06:36:40;;;;;;;14.52;4.68;;;14.80;99.90;;;;;;4952080;28;86775;-71
2023/10/07 06:39:07;;;;;;;14.30;4.53;;;14.90;99.90;;;;;;4952419;28;88393;-71
2023/10/07 06:41:53;;;;;;;12.00;5.13;;;14.90;99.90;;;;;;4952257;28;86045;-71
2023/10/07 06:44:18;;;;;;;16.45;5.13;;;14.90;99.90;;;;;;4954030;28;86374;-72
2023/10/07 06:46:46;;;;;;;16.38;5.60;;;14.90;99.90;;;;;;4954935;28;86928;-72
2023/10/07 06:49:19;;;;;;;14.30;5.07;;;14.90;99.90;;;;;;4956905;28;86949;-72
2023/10/07 06:51:48;;;;;;;12.40;5.30;;;14.90;99.90;;;;;;4955452;28;94469;-72
2023/10/07 06:54:14;;;;;;;12.32;4.85;;;15.00;99.90;;;;;;4952862;28;87290;-71
2023/10/07 06:56:40;;;;;;;15.02;5.30;;;15.00;99.90;;;;;;4954525;28;86741;-71
2023/10/07 06:59:12;;;;;;;15.38;5.30;;;15.00;99.90;;;;;;4952812;28;90171;-71
2023/10/07 07:04:14;;;;;;;13.82;5.10;;;15.00;99.90;;;;;;4957010;28;86053;-70
2023/10/07 07:06:44;;;;;;;11.23;4.55;;;15.10;99.90;;;;;;4961494;28;86549;-72
2023/10/07 07:12:12;;;;;;;19.13;5.95;;;15.10;99.90;;;;;;4955374;28;86353;-73
2023/10/07 07:14:50;;;;;;;11.48;5.03;;;15.10;99.90;;;;;;4954755;28;86308;-71
2023/10/07 07:17:29;;;;;;;13.32;5.13;;;15.20;99.90;;;;;;4953192;28;86523;-73
2023/10/07 07:22:44;;;;;;;14.45;5.75;;;15.30;99.90;;;;;;4956534;28;86248;-72
2023/10/07 07:25:12;;;;;;;14.73;5.28;;;15.30;99.90;;;;;;4951501;28;86197;-71
2023/10/07 07:27:52;;;;;;;12.75;5.70;;;15.30;99.90;;;;;;4971754;28;86232;-73
2023/10/07 07:30:31;;;;;;;15.88;5.15;;;15.30;99.90;;;;;;4954299;28;86810;-71
2023/10/07 07:33:06;;;;;;;14.93;4.85;;;15.40;99.90;;;;;;4952872;28;89917;-71
2023/10/07 07:35:43;;;;;;;12.95;5.00;;;15.40;99.90;;;;;;4964716;28;86391;-71
2023/10/07 07:38:54;;;;;;;12.88;5.22;;;15.40;99.90;;;;;;4964426;28;92185;-71
2023/10/07 07:41:08;;;;;;;13.50;5.15;;;15.50;99.90;;;;;;4952641;28;90943;-71
2023/10/07 07:43:39;;;;;;;13.70;5.40;;;15.50;99.90;;;;;;4958681;28;88953;-71
2023/10/07 07:48:46;;;;;;;14.65;6.07;;;15.60;99.90;;;;;;4967654;28;86075;-70
2023/10/07 07:51:20;;;;;;;13.80;5.20;;;15.70;99.90;;;;;;4960484;28;88876;-71
2023/10/07 07:53:46;;;;;;;11.13;5.05;;;15.70;99.90;;;;;;4961949;28;86549;-71
2023/10/07 07:56:13;;;;;;;14.35;5.25;;;15.80;99.90;;;;;;4951745;28;86932;-72
2023/10/07 07:58:49;;;;;;;10.98;5.40;;;15.80;99.90;;;;;;4953262;28;86491;-72
2023/10/07 08:01:28;;;;;;;14.32;5.10;;;15.80;99.90;;;;;;4952951;28;86401;-71
2023/10/07 08:04:04;;;;;;;15.45;5.47;;;15.90;99.90;;;;;;4957122;28;87997;-71
2023/10/07 08:06:31;;;;;;;14.32;5.30;;;15.90;99.90;;;;;;4952739;28;86788;-72
2023/10/07 08:08:57;;;;;;;14.40;4.70;;;15.90;99.90;;;;;;4953907;28;86265;-72
2023/10/07 08:11:22;;;;;;;11.77;5.75;;;16.00;99.90;;;;;;4959623;28;89123;-75
2023/10/07 08:13:48;;;;;;;14.10;4.97;;;16.00;99.90;;;;;;4956642;28;89430;-71
2023/10/07 08:16:20;;;;;;;12.70;5.25;;;16.10;99.90;;;;;;4961111;28;86573;-72
2023/10/07 08:18:49;;;;;;;14.43;5.47;;;16.20;99.90;;;;;;4954326;28;86193;-71
2023/10/07 08:21:16;;;;;;;13.38;5.05;;;16.20;99.90;;;;;;4953309;28;86335;-72
2023/10/07 08:23:44;;;;;;;9.27;5.10;;;16.30;99.90;;;;;;4951730;28;86635;-71
2023/10/07 08:26:20;;;;;;;15.98;5.60;;;16.40;99.90;;;;;;4951937;28;86370;-71
2023/10/07 08:29:31;;;;;;;17.38;4.72;;;16.50;99.90;;;;;;4952809;28;86169;-72
2023/10/07 08:31:38;;;;;;;18.85;6.03;;;16.60;99.90;;;;;;4949195;28;88709;-74
2023/10/07 08:36:36;;;;;;;20.40;6.35;;;16.70;99.90;;;;;;4944397;28;86226;-75
2023/10/07 08:39:05;;;;;;;10.95;5.00;;;16.70;99.90;;;;;;4944808;28;86329;-74
2023/10/07 08:41:32;;;;;;;15.70;5.78;;;16.80;99.90;;;;;;4944588;28;86932;-74
2023/10/07 08:44:13;;;;;;;17.73;5.05;;;16.80;99.90;;;;;;4939588;28;90202;-74
2023/10/07 08:46:40;;;;;;;13.13;5.88;;;16.90;99.90;;;;;;4931091;28;86961;-74
2023/10/07 08:49:15;;;;;;;17.00;5.47;;;16.90;99.90;;;;;;4933384;28;86316;-74
2023/10/07 08:51:42;;;;;;;22.55;6.47;;;16.90;99.90;;;;;;4973754;28;94435;-73
2023/10/07 08:54:17;;;;;;;12.32;5.03;;;16.90;99.90;;;;;;4966093;28;89889;-73
2023/10/07 08:56:57;;;;;;;17.67;5.50;;;17.00;99.90;;;;;;4960711;28;86199;-74
2023/10/07 08:59:33;;;;;;;14.07;4.68;;;17.00;99.90;;;;;;4960858;28;85897;-73
2023/10/07 09:02:12;;;;;;;13.73;5.10;;;17.10;99.90;;;;;;4962133;28;90573;-74
2023/10/07 09:04:40;;;;;;;12.30;4.85;;;17.20;99.90;;;;;;4976117;28;89495;-73
2023/10/07 09:07:11;;;;;;;15.95;5.53;;;17.40;99.90;;;;;;4958771;28;86789;-72
2023/10/07 09:09:38;;;;;;;14.43;4.82;;;17.40;99.90;;;;;;4953608;28;86074;-74
2023/10/07 09:12:48;;;;;;;11.55;5.07;;;17.50;99.90;;;;;;4955494;28;89727;-74
2023/10/07 09:15:13;;;;;;;14.40;4.95;;;17.70;99.90;;;;;;4952111;28;86367;-74
2023/10/07 09:17:45;;;;;;;13.48;4.97;;;17.80;99.90;;;;;;4952229;28;87016;-74
2023/10/07 09:20:29;;;;;;;15.43;5.55;;;17.90;99.90;;;;;;4952827;28;86510;-74
2023/10/07 09:22:57;;;;;;;12.65;5.00;;;18.00;99.90;;;;;;4954049;28;90018;-73
2023/10/07 09:25:33;;;;;;;10.77;4.88;;;18.10;99.90;;;;;;4947031;28;89495;-74
2023/10/07 09:28:01;;;;;;;13.50;5.47;;;18.10;99.90;;;;;;4948624;28;87016;-75
2023/10/07 09:33:21;;;;;;;13.82;4.95;;;18.30;99.90;;;;;;4940373;28;86283;-75
2023/10/07 09:38:41;;;;;;;11.20;4.90;;;18.50;99.90;;;;;;4938936;28;86645;-73
2023/10/07 09:43:48;;;;;;;11.85;4.95;;;18.60;99.90;;;;;;4936291;28;86457;-74
2023/10/07 09:46:24;;;;;;;14.00;4.63;;;18.60;99.90;;;;;;4937746;28;87220;-75
2023/10/07 09:48:51;;;;;;;15.57;5.15;;;18.70;99.90;;;;;;4938833;28;86311;-74
2023/10/07 09:51:34;;;;;;;12.60;4.65;;;18.90;99.90;;;;;;4939864;28;86517;-75
2023/10/07 09:54:36;;;;;;;17.05;4.45;;;18.90;99.90;;;;;;4926162;28;90464;-74
2023/10/07 09:57:20;;;;;;;14.18;4.50;;;19.00;99.90;;;;;;4943283;28;90052;-74
2023/10/07 10:03:20;;;;;;;12.95;4.40;;;19.10;99.90;;;;;;4943216;28;86870;-75
2023/10/07 10:06:07;;;;;;;12.52;5.03;;;19.10;99.90;;;;;;4956288;28;90189;-74
2023/10/07 10:08:43;;;;;;;13.40;4.95;;;19.20;99.90;;;;;;4962562;28;89399;-75
2023/10/07 10:11:31;;;;;;;15.95;5.03;;;19.30;99.90;;;;;;4964346;28;86729;-74
2023/10/07 10:16:59;;;;;;;13.55;5.15;;;19.40;99.90;;;;;;4943679;28;87623;-75
2023/10/07 10:19:44;;;;;;;13.85;5.63;;;19.50;99.80;;;;;;4959470;28;89381;-74
2023/10/07 10:22:22;;;;;;;9.50;3.65;;;19.60;99.70;;;;;;4962295;28;87211;-75
2023/10/07 10:25:09;;;;;;;14.40;4.10;;;19.70;99.60;;;;;;4945557;28;88371;-76
2023/10/07 10:27:44;;;;;;;7.32;4.25;;;19.70;99.20;;;;;;4946906;28;87814;-75
2023/10/07 10:30:21;;;;;;;13.23;4.55;;;19.70;98.90;;;;;;4947325;28;87485;-76
2023/10/07 10:33:00;;;;;;;12.07;4.05;;;19.90;99.20;;;;;;4945738;28;86368;-78
2023/10/07 10:35:27;;;;;;;13.57;4.38;;;19.90;98.60;;;;;;4947047;28;87022;-77
2023/10/07 10:37:59;;;;;;;12.60;4.53;;;20.00;98.90;;;;;;4948729;28;87855;-77
2023/10/07 10:40:31;;;;;;;14.57;3.85;;;20.10;98.80;;;;;;4961618;28;88538;-76
2023/10/07 10:42:57;;;;;;;12.18;3.90;;;20.30;99.10;;;;;;4949235;28;86960;-76
2023/10/07 10:45:30;;;;;;;7.82;3.60;;;20.50;99.00;;;;;;4946293;28;86953;-74
2023/10/07 10:48:01;;;;;;;11.55;4.35;;;20.60;97.50;;;;;;4946500;28;89100;-73
2023/10/07 10:50:32;;;;;;;7.85;3.33;;;20.80;98.20;;;;;;4963478;28;89655;-75
2023/10/07 10:52:59;;;;;;;12.23;3.60;;;21.00;98.20;;;;;;4946626;28;86975;-75
2023/10/07 10:55:32;;;;;;;9.38;3.65;;;21.20;97.30;;;;;;4948480;28;86309;-75
2023/10/07 10:58:00;;;;;;;9.57;3.15;;;21.20;96.70;;;;;;4963156;28;90579;-73
2023/10/07 11:00:25;;;;;;;10.57;3.28;;;21.20;96.00;;;;;;4948157;28;86975;-74
2023/10/07 11:02:53;;;;;;;10.13;3.45;;;21.20;96.60;;;;;;4949913;28;86455;-76
2023/10/07 11:05:22;;;;;;;11.48;3.40;;;21.30;95.80;;;;;;4949745;28;86401;-75
2023/10/07 11:07:50;;;;;;;9.95;2.95;;;21.40;96.70;;;;;;4946765;28;89987;-75
2023/10/07 11:10:22;;;;;;;4.57;2.50;;;21.50;95.90;;;;;;4948690;28;86577;-74
2023/10/07 11:12:56;;;;;;;14.15;3.00;;;21.60;95.70;;;;;;4949833;28;86160;-74
2023/10/07 11:15:26;;;;;;;8.15;2.35;;;21.80;95.70;;;;;;4948284;28;86675;-75
2023/10/07 11:18:12;;;;;;;8.75;2.95;;;21.90;94.20;;;;;;4947543;28;89983;-74
2023/10/07 11:20:42;;;;;;;7.15;2.55;;;22.00;94.40;;;;;;4948715;28;88615;-73
2023/10/07 11:23:08;;;;;;;7.20;2.65;;;22.00;93.80;;;;;;4947452;28;86254;-74
2023/10/07 11:25:41;;;;;;;6.13;2.55;;;22.10;93.90;;;;;;4947407;28;86703;-74
2023/10/07 11:28:09;;;;;;;6.47;2.40;;;22.20;93.20;;;;;;4946495;28;90094;-74
2023/10/07 11:30:48;;;;;;;6.78;2.70;;;22.20;93.50;;;;;;4947022;28;87267;-75
2023/10/07 11:33:19;;;;;;;6.85;2.65;;;22.30;93.40;;;;;;4948595;28;86524;-74
2023/10/07 11:35:57;;;;;;;5.97;2.83;;;22.40;93.30;;;;;;4947730;28;86752;-75
2023/10/07 11:38:26;;;;;;;7.13;2.60;;;22.50;92.90;;;;;;4945131;28;90348;-75
2023/10/07 11:40:52;;;;;;;6.50;2.65;;;22.60;92.90;;;;;;4947047;28;87378;-74
2023/10/07 11:43:18;;;;;;;8.65;2.63;;;22.70;92.80;;;;;;4947295;28;86586;-74
2023/10/07 11:45:44;;;;;;;10.88;2.97;;;22.70;92.60;;;;;;4946807;28;86389;-74
2023/10/07 11:48:11;;;;;;;5.68;2.40;;;22.80;92.50;;;;;;4946230;28;90001;-74
2023/10/07 11:50:37;;;;;;;8.52;2.80;;;22.90;93.20;;;;;;4945140;28;89784;-74
2023/10/07 11:53:03;;;;;;;9.90;2.53;;;23.00;92.10;;;;;;4946123;28;86328;-75
2023/10/07 11:55:31;;;;;;;7.45;2.50;;;23.20;91.90;;;;;;4944884;28;86285;-76
2023/10/07 11:58:01;;;;;;;7.97;2.92;;;23.20;91.40;;;;;;4945967;28;90653;-73
2023/10/07 12:00:36;;;;;;;5.40;2.83;;;23.20;91.20;;;;;;4943346;28;89633;-73
2023/10/07 12:03:10;;;;;;;9.48;2.95;;;23.20;91.60;;;;;;4945860;28;87045;-73
2023/10/07 12:05:42;;;;;;;11.55;2.40;;;23.30;91.10;;;;;;4946639;28;86436;-74
2023/10/07 12:08:11;;;;;;;6.43;2.45;;;23.40;91.00;;;;;;4947598;28;87452;-75
2023/10/07 12:10:38;;;;;;;6.40;2.90;;;23.50;90.50;;;;;;4944524;28;89154;-73
2023/10/07 12:13:11;;;;;;;8.45;2.72;;;23.50;88.80;;;;;;4944331;28;86603;-73
2023/10/07 12:15:39;;;;;;;5.57;2.77;;;23.50;89.20;;;;;;4944455;28;86553;-72
2023/10/07 12:18:06;;;;;;;12.88;3.60;;;23.60;88.70;;;;;;4943013;28;90857;-74
2023/10/07 12:20:32;;;;;;;7.03;3.03;;;23.60;89.70;;;;;;4945074;28;86568;-74
2023/10/07 12:22:58;;;;;;;12.50;3.00;;;23.70;90.00;;;;;;4945930;28;86095;-73
2023/10/07 12:25:23;;;;;;;5.22;2.95;;;23.90;90.10;;;;;;4939156;28;86669;-73
2023/10/07 12:27:53;;;;;;;7.15;2.70;;;24.00;88.50;;;;;;4943693;28;87970;-74
2023/10/07 12:30:21;;;;;;;5.85;2.70;;;24.10;87.50;;;;;;4948303;28;89235;-73
2023/10/07 12:32:48;;;;;;;7.95;3.28;;;24.20;87.10;;;;;;4932312;28;86439;-73
2023/10/07 12:35:15;;;;;;;7.05;3.20;;;24.20;87.70;;;;;;4941277;28;86356;-73
2023/10/07 12:37:46;;;;;;;10.30;3.83;;;24.40;87.30;;;;;;4945972;28;87315;-76
2023/10/07 12:40:14;;;;;;;5.40;2.60;;;24.50;85.60;;;;;;4943036;28;89885;-76
2023/10/07 12:42:51;;;;;;;9.52;3.33;;;24.60;86.00;;;;;;4945191;28;86047;-74
2023/10/07 12:45:18;;;;;;;9.93;3.35;;;24.80;85.30;;;;;;4944821;28;86790;-76
2023/10/07 12:47:44;;;;;;;7.00;3.17;;;25.00;89.10;;;;;;4945154;28;89582;-74
2023/10/07 12:50:20;;;;;;;7.63;2.92;;;25.20;84.30;;;;;;4944216;28;89579;-74
2023/10/07 12:52:57;;;;;;;9.18;2.95;;;25.50;83.30;;;;;;4944996;28;86313;-74
2023/10/07 12:55:23;;;;;;;6.50;3.15;;;25.60;81.20;;;;;;4944300;28;86907;-73
2023/10/07 12:57:49;;;;;;;9.10;3.30;;;25.60;79.60;;;;;;4943850;28;90439;-78
2023/10/07 13:00:19;;;;;;;9.10;3.10;;;25.70;79.60;;;;;;4944701;28;89976;-75
2023/10/07 13:02:47;;;;;;;6.50;2.72;;;25.70;79.20;;;;;;4947347;28;90838;-78
2023/10/07 13:05:18;;;;;;;6.10;3.10;;;26.00;81.40;;;;;;4946328;28;86596;-76
2023/10/07 13:07:53;;;;;;;8.55;3.00;;;26.20;78.60;;;;;;4945461;28;88003;-76
2023/10/07 13:10:19;;;;;;;10.15;3.20;;;26.40;75.90;;;;;;4936183;28;86335;-74
2023/10/07 13:12:46;;;;;;;7.32;2.72;;;26.50;76.40;;;;;;4925239;28;86428;-74
2023/10/07 13:15:16;;;;;;;6.75;2.72;;;26.60;73.60;;;;;;4925466;28;86278;-74
2023/10/07 13:17:45;;;;;;;5.65;2.78;;;26.70;75.20;;;;;;4945910;28;92044;-74
2023/10/07 13:20:20;;;;;;;6.85;2.55;;;26.80;73.70;;;;;;4943506;28;88501;-74
2023/10/07 13:22:50;;;;;;;7.72;3.30;;;26.80;70.60;;;;;;4943261;28;86937;-74
2023/10/07 13:25:18;;;;;;;8.80;3.03;;;27.00;71.00;;;;;;4944682;28;86311;-74
2023/10/07 13:27:44;;;;;;;7.97;3.00;;;27.10;72.10;;;;;;4944790;28;89917;-74
2023/10/07 13:30:12;;;;;;;6.28;2.85;;;27.30;72.70;;;;;;4943998;28;89699;-73
2023/10/07 13:32:42;;;;;;;8.45;2.97;;;27.40;70.30;;;;;;4944222;28;86973;-73
2023/10/07 13:35:08;;;;;;;5.43;3.13;;;27.30;70.90;;;;;;4944554;28;87022;-74
2023/10/07 13:37:34;;;;;;;7.43;3.20;;;27.30;67.70;;;;;;4944072;28;87575;-73
2023/10/07 13:40:07;;;;;;;14.02;3.17;;;27.30;69.20;;;;;;4942383;28;90066;-75
2023/10/07 13:42:32;;;;;;;6.40;2.87;;;27.20;67.80;;;;;;4944752;28;86777;-73
2023/10/07 13:45:03;;;;;;;6.43;2.90;;;27.00;67.20;;;;;;4945972;28;86306;-72
2023/10/07 13:47:31;;;;;;;6.68;2.90;;;26.90;69.70;;;;;;4943960;28;90349;-72
2023/10/07 13:49:57;;;;;;;6.88;2.97;;;26.90;67.30;;;;;;4943186;28;89914;-72
2023/10/07 13:52:23;;;;;;;6.88;2.70;;;27.00;68.80;;;;;;4944123;28;86264;-73
2023/10/07 13:55:13;;;;;;;8.55;2.88;;;27.20;66.70;;;;;;4942826;28;86864;-72
2023/10/07 13:57:34;;;;;;;5.80;2.72;;;27.30;66.00;;;;;;4944582;28;89144;-74
2023/10/07 14:00:01;;;;;;;6.63;2.65;;;27.60;67.00;;;;;;4944279;28;89186;-72